Redwood City, CA (94063)

6:45 AM PDT on September 18, 2014 (GMT -0700)
White Oaks | Change Station
CLOSE
Current Station
Personal Weather Station
Location: San Carlos, CA
Elevation: 52 ft
Nearby Weather Stations

Elev 52 ft 37.49 °N, 122.26 °W | Updated 10 minutes ago

Overcast
Overcast
67.1 °F
Feels Like 67.1 °F
N
0.0
Wind Variable Wind from ESE
Gusts 1.0 mph

Today
High -- | Low -- °F
--% Chance of Precip.
Yesterday
High -- | Low -- °F
Precip. -- in
6:53 AM 7:11 PM
Waning Crescent, 27% visible
Pressure 29.81 in
Visibility 10.0 miles
Clouds Few 2100 ft
Mostly Cloudy 2800 ft
Overcast 4600 ft
Dew Point 63 °F
Humidity 86%
Rainfall 0.00 in
Snow Depth 0 in , 0 in , 0 in
UV 0 out of 12
Pollen 5.10 out of 12
Air Quality Not available.
Flu Activity Not available.
METAR KSQL 181330Z AUTO 14006KT 10SM FEW021 BKN028 OVC046 20/17 A2981 RMK AO2

More Conditions Fewer Conditions

Pressure 29.81 in
Visibility 10.0 miles
Clouds Few 2100 ft
Mostly Cloudy 2800 ft
Overcast 4600 ft
Dew Point 63 °F
Humidity 86%
Rainfall 0.00 in
Snow Depth 0 in , 0 in , 0 in
UV 0 out of 12
Pollen 5.10 out of 12
Air Quality Not available.
Flu Activity Not available.
METAR KSQL 181330Z AUTO 14006KT 10SM FEW021 BKN028 OVC046 20/17 A2981 RMK AO2

More Conditions Fewer Conditions

10-Day Weather Forecast

Almanac

Astronomy

Sep. 18, 2014 Rise Set
Actual Time 6:53 AM PDT 7:11 PM PDT
Civil Twilight 6:27 AM PDT 7:37 PM PDT
Nautical Twilight 5:56 AM PDT 8:08 PM PDT
Astronomical Twilight 5:25 AM PDT 8:39 PM PDT
Moon 1:54 AM PDT 4:02 PM PDT
Length of Visible Light 13h 10m
Length of Day
12h 18m
Tomorrow will be 2m 23s shorter.
Waning Crescent, 27% of the Moon is Illuminated
Today
Waning Crescent
Sep 24
New
Oct 1
First Quarter
Oct 8
Full
Oct 15
Last Quarter

Today's Extremes

State Highs State Lows

Community

WunderPhotos

Upload Photos

1,754,347 photos uploaded!

Nearby

Air Quality

  Air Quality AQ Index Pollutant
Yesterday Good
PM2.5
Yesterday Good
OZONE
Thursday Good
OZONE
Friday Good
OZONE
Saturday Good
PM2.5
Sunday Good
PM2.5
Monday Good
PM2.5

Snow Depth

Station Depth Elevation
Tahoe City Cross 0 in 6750 ft
Fallen Leaf 0 in 6300 ft
Burnside Lake 0 in 8139 ft
Blue Lakes 0 in 8000 ft
Squaw Valley 0 in 8200 ft

Earthquake Activity

City Distance Mag. Time & Date
The Geysers, California 91 miles 2.5 11:29 PM PDT
2014-09-17
Cobb, California 94 miles 2.7 1:23 PM PDT
2014-09-16
Minimum magnitude displayed is 2.5.

Coastal Water Temperatures

Place Temperature
No Stations Reporting

Nearby Weather Stations